sensor_id;sensor_type;location;lat;lon;timestamp;temperature;humidity
70368;DHT22;57789;53.868;10.728;2023-09-12T00:01:19;19.90;99.90
70368;DHT22;57789;53.868;10.728;2023-09-12T00:03:48;19.90;99.90
70368;DHT22;57789;53.868;10.728;2023-09-12T00:06:18;20.00;99.90
70368;DHT22;57789;53.868;10.728;2023-09-12T00:08:45;20.00;99.90
70368;DHT22;57789;53.868;10.728;2023-09-12T00:11:14;20.10;99.90
70368;DHT22;57789;53.868;10.728;2023-09-12T00:13:43;20.20;99.90
70368;DHT22;57789;53.868;10.728;2023-09-12T00:16:24;20.30;99.90
70368;DHT22;57789;53.868;10.728;2023-09-12T00:18:54;20.30;99.90
70368;DHT22;57789;53.868;10.728;2023-09-12T00:21:23;20.40;99.90
70368;DHT22;57789;53.868;10.728;2023-09-12T00:23:50;20.40;99.90
70368;DHT22;57789;53.868;10.728;2023-09-12T00:26:18;20.50;99.90
70368;DHT22;57789;53.868;10.728;2023-09-12T00:28:45;20.50;99.90
70368;DHT22;57789;53.868;10.728;2023-09-12T00:31:11;20.50;99.90
70368;DHT22;57789;53.868;10.728;2023-09-12T00:33:39;20.50;99.90
70368;DHT22;57789;53.868;10.728;2023-09-12T00:36:06;20.50;99.90
70368;DHT22;57789;53.868;10.728;2023-09-12T00:38:37;20.50;99.90
70368;DHT22;57789;53.868;10.728;2023-09-12T00:41:08;20.60;99.90
70368;DHT22;57789;53.868;10.728;2023-09-12T00:43:36;20.60;99.90
70368;DHT22;57789;53.868;10.728;2023-09-12T00:46:05;20.60;99.90
70368;DHT22;57789;53.868;10.728;2023-09-12T00:48:34;20.60;99.90
70368;DHT22;57789;53.868;10.728;2023-09-12T00:51:04;20.60;99.90
70368;DHT22;57789;53.868;10.728;2023-09-12T00:53:32;20.60;99.90
70368;DHT22;57789;53.868;10.728;2023-09-12T00:56:00;20.50;99.90
70368;DHT22;57789;53.868;10.728;2023-09-12T00:58:28;20.50;99.90
70368;DHT22;57789;53.868;10.728;2023-09-12T01:00:55;20.50;99.90
70368;DHT22;57789;53.868;10.728;2023-09-12T01:03:21;20.40;99.90
70368;DHT22;57789;53.868;10.728;2023-09-12T01:05:47;20.40;99.90
70368;DHT22;57789;53.868;10.728;2023-09-12T01:08:14;20.40;99.90
70368;DHT22;57789;53.868;10.728;2023-09-12T01:10:40;20.30;99.90
70368;DHT22;57789;53.868;10.728;2023-09-12T01:13:14;20.30;99.90
70368;DHT22;57789;53.868;10.728;2023-09-12T01:15:41;20.20;99.90
70368;DHT22;57789;53.868;10.728;2023-09-12T01:18:07;20.20;99.90
70368;DHT22;57789;53.868;10.728;2023-09-12T01:20:36;20.20;99.90
70368;DHT22;57789;53.868;10.728;2023-09-12T01:26:20;20.10;99.90
70368;DHT22;57789;53.868;10.728;2023-09-12T01:28:51;20.00;99.90
70368;DHT22;57789;53.868;10.728;2023-09-12T01:31:20;19.90;99.90
70368;DHT22;57789;53.868;10.728;2023-09-12T01:33:47;19.90;99.90
70368;DHT22;57789;53.868;10.728;2023-09-12T01:36:12;19.90;99.90
70368;DHT22;57789;53.868;10.728;2023-09-12T01:38:38;19.80;99.90
70368;DHT22;57789;53.868;10.728;2023-09-12T01:41:04;19.80;99.90
70368;DHT22;57789;53.868;10.728;2023-09-12T01:43:31;19.80;99.90
70368;DHT22;57789;53.868;10.728;2023-09-12T01:45:59;19.70;99.90
70368;DHT22;57789;53.868;10.728;2023-09-12T01:48:28;19.80;99.90
70368;DHT22;57789;53.868;10.728;2023-09-12T01:50:59;19.70;99.90
70368;DHT22;57789;53.868;10.728;2023-09-12T01:53:28;19.60;99.90
70368;DHT22;57789;53.868;10.728;2023-09-12T01:55:57;19.60;99.90
70368;DHT22;57789;53.868;10.728;2023-09-12T01:58:25;19.50;99.90
70368;DHT22;57789;53.868;10.728;2023-09-12T02:00:51;19.50;99.90
70368;DHT22;57789;53.868;10.728;2023-09-12T02:03:17;19.50;99.90
70368;DHT22;57789;53.868;10.728;2023-09-12T02:05:43;19.50;99.90
70368;DHT22;57789;53.868;10.728;2023-09-12T02:08:09;19.50;99.90
70368;DHT22;57789;53.868;10.728;2023-09-12T02:10:35;19.50;99.90
70368;DHT22;57789;53.868;10.728;2023-09-12T02:13:00;19.50;99.90
70368;DHT22;57789;53.868;10.728;2023-09-12T02:15:26;19.50;99.90
70368;DHT22;57789;53.868;10.728;2023-09-12T02:17:52;19.50;99.90
70368;DHT22;57789;53.868;10.728;2023-09-12T02:20:18;19.50;99.90
70368;DHT22;57789;53.868;10.728;2023-09-12T02:22:45;19.50;99.90
70368;DHT22;57789;53.868;10.728;2023-09-12T02:25:10;19.50;99.90
70368;DHT22;57789;53.868;10.728;2023-09-12T02:27:36;19.60;99.90
70368;DHT22;57789;53.868;10.728;2023-09-12T02:30:02;19.70;99.90
70368;DHT22;57789;53.868;10.728;2023-09-12T02:32:28;19.70;99.90
70368;DHT22;57789;53.868;10.728;2023-09-12T02:34:55;19.60;99.90
70368;DHT22;57789;53.868;10.728;2023-09-12T02:37:22;19.50;99.90
70368;DHT22;57789;53.868;10.728;2023-09-12T02:39:48;19.60;99.90
70368;DHT22;57789;53.868;10.728;2023-09-12T02:42:13;19.70;99.90
70368;DHT22;57789;53.868;10.728;2023-09-12T02:44:39;19.60;99.90
70368;DHT22;57789;53.868;10.728;2023-09-12T02:47:05;19.60;99.90
70368;DHT22;57789;53.868;10.728;2023-09-12T02:49:31;19.60;99.90
70368;DHT22;57789;53.868;10.728;2023-09-12T02:51:56;19.60;99.90
70368;DHT22;57789;53.868;10.728;2023-09-12T02:54:22;19.50;99.90
70368;DHT22;57789;53.868;10.728;2023-09-12T02:56:47;19.50;99.90
70368;DHT22;57789;53.868;10.728;2023-09-12T02:59:13;19.40;99.90
70368;DHT22;57789;53.868;10.728;2023-09-12T03:01:39;19.30;99.90
70368;DHT22;57789;53.868;10.728;2023-09-12T03:04:04;19.20;99.90
70368;DHT22;57789;53.868;10.728;2023-09-12T03:06:30;19.20;99.90
70368;DHT22;57789;53.868;10.728;2023-09-12T03:08:56;19.20;99.90
70368;DHT22;57789;53.868;10.728;2023-09-12T03:11:22;19.20;99.90
70368;DHT22;57789;53.868;10.728;2023-09-12T03:13:48;19.20;99.90
70368;DHT22;57789;53.868;10.728;2023-09-12T03:16:14;19.20;99.90
70368;DHT22;57789;53.868;10.728;2023-09-12T03:18:40;19.20;99.90
70368;DHT22;57789;53.868;10.728;2023-09-12T03:21:06;19.10;99.90
70368;DHT22;57789;53.868;10.728;2023-09-12T03:23:32;19.10;99.90
70368;DHT22;57789;53.868;10.728;2023-09-12T03:26:06;19.10;99.90
70368;DHT22;57789;53.868;10.728;2023-09-12T03:28:32;19.10;99.90
70368;DHT22;57789;53.868;10.728;2023-09-12T03:31:07;19.10;99.90
70368;DHT22;57789;53.868;10.728;2023-09-12T03:33:33;19.10;99.90
70368;DHT22;57789;53.868;10.728;2023-09-12T03:35:59;19.10;99.90
70368;DHT22;57789;53.868;10.728;2023-09-12T03:38:25;19.00;99.90
70368;DHT22;57789;53.868;10.728;2023-09-12T03:40:50;19.10;99.90
70368;DHT22;57789;53.868;10.728;2023-09-12T03:43:16;19.00;99.90
70368;DHT22;57789;53.868;10.728;2023-09-12T03:45:42;19.00;99.90
70368;DHT22;57789;53.868;10.728;2023-09-12T03:48:08;19.00;99.90
70368;DHT22;57789;53.868;10.728;2023-09-12T03:50:33;18.90;99.90
70368;DHT22;57789;53.868;10.728;2023-09-12T03:52:59;18.90;99.90
70368;DHT22;57789;53.868;10.728;2023-09-12T03:55:27;18.90;99.90
70368;DHT22;57789;53.868;10.728;2023-09-12T03:57:53;18.90;99.90
70368;DHT22;57789;53.868;10.728;2023-09-12T04:00:19;18.80;99.90
70368;DHT22;57789;53.868;10.728;2023-09-12T04:02:44;18.80;99.90
70368;DHT22;57789;53.868;10.728;2023-09-12T04:05:10;18.80;99.90
70368;DHT22;57789;53.868;10.728;2023-09-12T04:07:36;18.90;99.90
70368;DHT22;57789;53.868;10.728;2023-09-12T04:10:01;18.80;99.90
70368;DHT22;57789;53.868;10.728;2023-09-12T04:12:27;18.80;99.90
70368;DHT22;57789;53.868;10.728;2023-09-12T04:14:53;18.80;99.90
70368;DHT22;57789;53.868;10.728;2023-09-12T04:17:20;18.80;99.90
70368;DHT22;57789;53.868;10.728;2023-09-12T04:19:46;18.80;99.90
70368;DHT22;57789;53.868;10.728;2023-09-12T04:22:11;18.90;99.90
70368;DHT22;57789;53.868;10.728;2023-09-12T04:24:37;18.80;99.90
70368;DHT22;57789;53.868;10.728;2023-09-12T04:27:03;18.90;99.90
70368;DHT22;57789;53.868;10.728;2023-09-12T04:29:29;18.90;99.90
70368;DHT22;57789;53.868;10.728;2023-09-12T04:31:54;18.90;99.90
70368;DHT22;57789;53.868;10.728;2023-09-12T04:34:25;18.80;99.90
70368;DHT22;57789;53.868;10.728;2023-09-12T04:36:52;18.80;99.90
70368;DHT22;57789;53.868;10.728;2023-09-12T04:39:17;18.90;99.90
70368;DHT22;57789;53.868;10.728;2023-09-12T04:41:43;18.90;99.90
70368;DHT22;57789;53.868;10.728;2023-09-12T04:44:08;18.90;99.90
70368;DHT22;57789;53.868;10.728;2023-09-12T04:46:34;18.90;99.90
70368;DHT22;57789;53.868;10.728;2023-09-12T04:49:00;19.00;99.90
70368;DHT22;57789;53.868;10.728;2023-09-12T04:51:25;19.10;99.90
70368;DHT22;57789;53.868;10.728;2023-09-12T04:53:52;19.10;99.90
70368;DHT22;57789;53.868;10.728;2023-09-12T04:56:18;19.20;99.90
70368;DHT22;57789;53.868;10.728;2023-09-12T04:58:44;19.20;99.90
70368;DHT22;57789;53.868;10.728;2023-09-12T05:01:09;19.30;99.90
70368;DHT22;57789;53.868;10.728;2023-09-12T05:03:35;19.30;99.90
70368;DHT22;57789;53.868;10.728;2023-09-12T05:06:01;19.30;99.90
70368;DHT22;57789;53.868;10.728;2023-09-12T05:08:27;19.30;99.90
70368;DHT22;57789;53.868;10.728;2023-09-12T05:10:52;19.40;99.90
70368;DHT22;57789;53.868;10.728;2023-09-12T05:13:18;19.40;99.90
70368;DHT22;57789;53.868;10.728;2023-09-12T05:15:47;19.40;99.90
70368;DHT22;57789;53.868;10.728;2023-09-12T05:18:13;19.40;99.90
70368;DHT22;57789;53.868;10.728;2023-09-12T05:20:39;19.50;99.90
70368;DHT22;57789;53.868;10.728;2023-09-12T05:23:08;19.50;99.90
70368;DHT22;57789;53.868;10.728;2023-09-12T05:25:33;19.40;99.90
70368;DHT22;57789;53.868;10.728;2023-09-12T05:27:59;19.40;99.90
70368;DHT22;57789;53.868;10.728;2023-09-12T05:30:25;19.40;99.90
70368;DHT22;57789;53.868;10.728;2023-09-12T05:32:50;19.30;99.90
70368;DHT22;57789;53.868;10.728;2023-09-12T05:35:16;19.30;99.90
70368;DHT22;57789;53.868;10.728;2023-09-12T05:37:42;19.40;99.90
70368;DHT22;57789;53.868;10.728;2023-09-12T05:40:08;19.40;99.90
70368;DHT22;57789;53.868;10.728;2023-09-12T05:42:35;19.40;99.90
70368;DHT22;57789;53.868;10.728;2023-09-12T05:45:01;19.40;99.90
70368;DHT22;57789;53.868;10.728;2023-09-12T05:47:27;19.50;99.90
70368;DHT22;57789;53.868;10.728;2023-09-12T05:49:52;19.50;99.90
70368;DHT22;57789;53.868;10.728;2023-09-12T05:52:18;19.50;99.90
70368;DHT22;57789;53.868;10.728;2023-09-12T05:54:44;19.50;99.90
70368;DHT22;57789;53.868;10.728;2023-09-12T05:57:10;19.40;99.90
70368;DHT22;57789;53.868;10.728;2023-09-12T05:59:37;19.50;99.90
70368;DHT22;57789;53.868;10.728;2023-09-12T06:02:04;19.40;99.90
70368;DHT22;57789;53.868;10.728;2023-09-12T06:04:31;19.40;99.90
70368;DHT22;57789;53.868;10.728;2023-09-12T06:06:57;19.30;99.90
70368;DHT22;57789;53.868;10.728;2023-09-12T06:09:23;19.30;99.90
70368;DHT22;57789;53.868;10.728;2023-09-12T06:11:50;19.30;99.90
70368;DHT22;57789;53.868;10.728;2023-09-12T06:14:16;19.30;99.90
70368;DHT22;57789;53.868;10.728;2023-09-12T06:16:42;19.30;99.90
70368;DHT22;57789;53.868;10.728;2023-09-12T06:19:07;19.20;99.90
70368;DHT22;57789;53.868;10.728;2023-09-12T06:21:33;19.30;99.90
70368;DHT22;57789;53.868;10.728;2023-09-12T06:24:17;19.30;99.90
70368;DHT22;57789;53.868;10.728;2023-09-12T06:26:43;19.30;99.90
70368;DHT22;57789;53.868;10.728;2023-09-12T06:29:09;19.20;99.90
70368;DHT22;57789;53.868;10.728;2023-09-12T06:31:35;19.10;99.90
70368;DHT22;57789;53.868;10.728;2023-09-12T06:34:01;19.10;99.90
70368;DHT22;57789;53.868;10.728;2023-09-12T06:36:28;19.30;99.90
70368;DHT22;57789;53.868;10.728;2023-09-12T06:38:57;19.30;99.90
70368;DHT22;57789;53.868;10.728;2023-09-12T06:41:23;19.30;99.90
70368;DHT22;57789;53.868;10.728;2023-09-12T06:43:49;19.30;99.90
70368;DHT22;57789;53.868;10.728;2023-09-12T06:46:14;19.30;99.90
70368;DHT22;57789;53.868;10.728;2023-09-12T06:48:43;19.30;99.90
70368;DHT22;57789;53.868;10.728;2023-09-12T06:51:10;19.30;99.90
70368;DHT22;57789;53.868;10.728;2023-09-12T06:53:36;19.30;99.90
70368;DHT22;57789;53.868;10.728;2023-09-12T06:56:03;19.30;99.90
70368;DHT22;57789;53.868;10.728;2023-09-12T06:58:29;19.30;99.90
70368;DHT22;57789;53.868;10.728;2023-09-12T07:00:55;19.30;99.90
70368;DHT22;57789;53.868;10.728;2023-09-12T07:03:21;19.40;99.90
70368;DHT22;57789;53.868;10.728;2023-09-12T07:05:48;19.40;99.90
70368;DHT22;57789;53.868;10.728;2023-09-12T07:08:14;19.50;99.90
70368;DHT22;57789;53.868;10.728;2023-09-12T07:10:46;19.40;99.90
70368;DHT22;57789;53.868;10.728;2023-09-12T07:13:12;19.40;99.90
70368;DHT22;57789;53.868;10.728;2023-09-12T07:15:38;19.40;99.90
70368;DHT22;57789;53.868;10.728;2023-09-12T07:18:04;19.40;99.90
70368;DHT22;57789;53.868;10.728;2023-09-12T07:20:32;19.40;99.90
70368;DHT22;57789;53.868;10.728;2023-09-12T07:22:58;19.40;99.90
70368;DHT22;57789;53.868;10.728;2023-09-12T07:25:23;19.50;99.90
70368;DHT22;57789;53.868;10.728;2023-09-12T07:27:50;19.50;99.90
70368;DHT22;57789;53.868;10.728;2023-09-12T07:30:16;19.60;99.90
70368;DHT22;57789;53.868;10.728;2023-09-12T07:32:42;19.60;99.90
70368;DHT22;57789;53.868;10.728;2023-09-12T07:35:08;19.60;99.90
70368;DHT22;57789;53.868;10.728;2023-09-12T07:37:33;19.60;99.90
70368;DHT22;57789;53.868;10.728;2023-09-12T07:40:00;19.60;99.90
70368;DHT22;57789;53.868;10.728;2023-09-12T07:42:28;19.60;99.90
70368;DHT22;57789;53.868;10.728;2023-09-12T07:44:54;19.50;99.90
70368;DHT22;57789;53.868;10.728;2023-09-12T07:47:20;19.60;99.90
70368;DHT22;57789;53.868;10.728;2023-09-12T07:49:46;19.60;99.90
70368;DHT22;57789;53.868;10.728;2023-09-12T07:52:17;19.80;99.90
70368;DHT22;57789;53.868;10.728;2023-09-12T07:54:43;19.80;99.90
70368;DHT22;57789;53.868;10.728;2023-09-12T07:57:09;19.80;99.90
70368;DHT22;57789;53.868;10.728;2023-09-12T07:59:34;19.90;99.90
70368;DHT22;57789;53.868;10.728;2023-09-12T08:02:00;20.00;99.90
70368;DHT22;57789;53.868;10.728;2023-09-12T08:04:26;19.90;99.90
70368;DHT22;57789;53.868;10.728;2023-09-12T08:06:51;19.90;99.90
70368;DHT22;57789;53.868;10.728;2023-09-12T08:09:17;19.90;99.90
70368;DHT22;57789;53.868;10.728;2023-09-12T08:11:43;20.00;99.90
70368;DHT22;57789;53.868;10.728;2023-09-12T08:14:09;20.00;99.90
70368;DHT22;57789;53.868;10.728;2023-09-12T08:16:35;20.00;99.90
70368;DHT22;57789;53.868;10.728;2023-09-12T08:19:01;19.90;99.90
70368;DHT22;57789;53.868;10.728;2023-09-12T08:21:27;19.90;99.90
70368;DHT22;57789;53.868;10.728;2023-09-12T08:23:53;19.90;99.90
70368;DHT22;57789;53.868;10.728;2023-09-12T08:26:18;19.90;99.90
70368;DHT22;57789;53.868;10.728;2023-09-12T08:28:45;19.80;99.90
70368;DHT22;57789;53.868;10.728;2023-09-12T08:31:10;19.80;99.90
70368;DHT22;57789;53.868;10.728;2023-09-12T08:33:36;19.90;99.90
70368;DHT22;57789;53.868;10.728;2023-09-12T08:36:02;20.10;99.90
70368;DHT22;57789;53.868;10.728;2023-09-12T08:38:28;20.20;99.90
70368;DHT22;57789;53.868;10.728;2023-09-12T08:40:54;20.40;99.90
70368;DHT22;57789;53.868;10.728;2023-09-12T08:43:20;20.40;99.90
70368;DHT22;57789;53.868;10.728;2023-09-12T08:45:46;20.40;99.90
70368;DHT22;57789;53.868;10.728;2023-09-12T08:48:13;20.50;99.90
70368;DHT22;57789;53.868;10.728;2023-09-12T08:50:41;20.50;99.90
70368;DHT22;57789;53.868;10.728;2023-09-12T08:53:07;20.60;99.90
70368;DHT22;57789;53.868;10.728;2023-09-12T08:55:33;20.60;99.90
70368;DHT22;57789;53.868;10.728;2023-09-12T08:58:02;20.70;99.90
70368;DHT22;57789;53.868;10.728;2023-09-12T09:00:29;20.80;99.90
70368;DHT22;57789;53.868;10.728;2023-09-12T09:02:56;20.80;99.90
70368;DHT22;57789;53.868;10.728;2023-09-12T09:05:22;20.90;99.90
70368;DHT22;57789;53.868;10.728;2023-09-12T09:07:49;20.80;99.90
70368;DHT22;57789;53.868;10.728;2023-09-12T09:10:18;20.80;99.90
70368;DHT22;57789;53.868;10.728;2023-09-12T09:12:46;20.80;99.90
70368;DHT22;57789;53.868;10.728;2023-09-12T09:15:27;20.70;99.90
70368;DHT22;57789;53.868;10.728;2023-09-12T09:17:59;20.60;99.90
70368;DHT22;57789;53.868;10.728;2023-09-12T09:20:32;20.70;99.90
70368;DHT22;57789;53.868;10.728;2023-09-12T09:23:06;20.70;99.90
70368;DHT22;57789;53.868;10.728;2023-09-12T09:25:53;20.80;99.90
70368;DHT22;57789;53.868;10.728;2023-09-12T09:28:21;20.90;99.90
70368;DHT22;57789;53.868;10.728;2023-09-12T09:30:51;21.00;99.90
70368;DHT22;57789;53.868;10.728;2023-09-12T09:33:21;21.10;99.90
70368;DHT22;57789;53.868;10.728;2023-09-12T09:35:48;21.20;99.90
70368;DHT22;57789;53.868;10.728;2023-09-12T09:38:15;21.30;99.90
70368;DHT22;57789;53.868;10.728;2023-09-12T09:40:47;21.40;99.90
70368;DHT22;57789;53.868;10.728;2023-09-12T09:43:19;21.60;99.90
70368;DHT22;57789;53.868;10.728;2023-09-12T09:45:46;21.80;99.90
70368;DHT22;57789;53.868;10.728;2023-09-12T09:48:22;22.10;99.90
70368;DHT22;57789;53.868;10.728;2023-09-12T09:50:49;22.30;99.90
70368;DHT22;57789;53.868;10.728;2023-09-12T09:53:14;22.50;99.90
70368;DHT22;57789;53.868;10.728;2023-09-12T09:55:40;22.60;99.90
70368;DHT22;57789;53.868;10.728;2023-09-12T09:58:07;22.70;99.90
70368;DHT22;57789;53.868;10.728;2023-09-12T10:00:34;22.80;99.90
70368;DHT22;57789;53.868;10.728;2023-09-12T10:03:04;22.80;99.90
70368;DHT22;57789;53.868;10.728;2023-09-12T10:05:32;22.70;99.90
70368;DHT22;57789;53.868;10.728;2023-09-12T10:07:59;22.70;99.90
70368;DHT22;57789;53.868;10.728;2023-09-12T10:10:29;22.70;99.90
70368;DHT22;57789;53.868;10.728;2023-09-12T10:12:59;22.60;99.90
70368;DHT22;57789;53.868;10.728;2023-09-12T10:15:29;22.50;99.90
70368;DHT22;57789;53.868;10.728;2023-09-12T10:18:04;22.40;99.90
70368;DHT22;57789;53.868;10.728;2023-09-12T10:20:37;22.20;99.90
70368;DHT22;57789;53.868;10.728;2023-09-12T10:23:08;22.10;99.90
70368;DHT22;57789;53.868;10.728;2023-09-12T10:25:37;22.00;99.90
70368;DHT22;57789;53.868;10.728;2023-09-12T10:28:05;21.90;99.90
70368;DHT22;57789;53.868;10.728;2023-09-12T10:30:32;21.70;99.90
70368;DHT22;57789;53.868;10.728;2023-09-12T10:33:01;21.60;99.90
70368;DHT22;57789;53.868;10.728;2023-09-12T10:35:30;21.60;99.90
70368;DHT22;57789;53.868;10.728;2023-09-12T10:38:00;21.70;99.90
70368;DHT22;57789;53.868;10.728;2023-09-12T10:40:28;21.70;99.90
70368;DHT22;57789;53.868;10.728;2023-09-12T10:42:55;21.90;99.90
70368;DHT22;57789;53.868;10.728;2023-09-12T10:45:22;22.20;99.90
70368;DHT22;57789;53.868;10.728;2023-09-12T10:47:48;22.30;99.90
70368;DHT22;57789;53.868;10.728;2023-09-12T10:50:14;22.30;99.90
70368;DHT22;57789;53.868;10.728;2023-09-12T10:52:40;22.30;99.90
70368;DHT22;57789;53.868;10.728;2023-09-12T10:55:07;22.30;99.90
70368;DHT22;57789;53.868;10.728;2023-09-12T10:57:33;22.40;99.90
70368;DHT22;57789;53.868;10.728;2023-09-12T11:02:42;22.40;99.90
70368;DHT22;57789;53.868;10.728;2023-09-12T11:08:03;22.20;99.90
70368;DHT22;57789;53.868;10.728;2023-09-12T11:10:30;22.30;99.90
70368;DHT22;57789;53.868;10.728;2023-09-12T11:12:58;22.30;99.90
70368;DHT22;57789;53.868;10.728;2023-09-12T11:15:26;22.50;99.90
70368;DHT22;57789;53.868;10.728;2023-09-12T11:18:05;22.70;99.90
70368;DHT22;57789;53.868;10.728;2023-09-12T11:20:58;22.70;99.90
70368;DHT22;57789;53.868;10.728;2023-09-12T11:23:25;22.70;99.90
70368;DHT22;57789;53.868;10.728;2023-09-12T11:26:07;22.60;99.90
70368;DHT22;57789;53.868;10.728;2023-09-12T11:28:33;22.50;99.90
70368;DHT22;57789;53.868;10.728;2023-09-12T11:30:59;22.60;99.90
70368;DHT22;57789;53.868;10.728;2023-09-12T11:33:25;22.50;99.90
70368;DHT22;57789;53.868;10.728;2023-09-12T11:35:55;22.60;99.90
70368;DHT22;57789;53.868;10.728;2023-09-12T11:38:30;22.80;99.90
70368;DHT22;57789;53.868;10.728;2023-09-12T11:40:59;22.90;99.90
70368;DHT22;57789;53.868;10.728;2023-09-12T11:43:28;22.90;99.90
70368;DHT22;57789;53.868;10.728;2023-09-12T11:45:55;22.90;99.90
70368;DHT22;57789;53.868;10.728;2023-09-12T11:48:21;22.90;99.90
70368;DHT22;57789;53.868;10.728;2023-09-12T11:50:56;23.00;99.90
70368;DHT22;57789;53.868;10.728;2023-09-12T11:53:24;22.90;99.90
70368;DHT22;57789;53.868;10.728;2023-09-12T11:55:54;22.70;99.90
70368;DHT22;57789;53.868;10.728;2023-09-12T11:58:20;22.60;99.90
70368;DHT22;57789;53.868;10.728;2023-09-12T12:00:48;22.50;99.90
70368;DHT22;57789;53.868;10.728;2023-09-12T12:03:16;22.40;99.90
70368;DHT22;57789;53.868;10.728;2023-09-12T12:05:42;22.30;99.90
70368;DHT22;57789;53.868;10.728;2023-09-12T12:08:09;22.40;99.90
70368;DHT22;57789;53.868;10.728;2023-09-12T12:10:35;22.30;99.90
70368;DHT22;57789;53.868;10.728;2023-09-12T12:13:03;22.30;99.90
70368;DHT22;57789;53.868;10.728;2023-09-12T12:15:29;22.30;99.90
70368;DHT22;57789;53.868;10.728;2023-09-12T12:17:55;22.30;99.90
70368;DHT22;57789;53.868;10.728;2023-09-12T12:20:22;22.20;99.90
70368;DHT22;57789;53.868;10.728;2023-09-12T12:22:47;22.10;99.90
70368;DHT22;57789;53.868;10.728;2023-09-12T12:25:14;22.10;99.90
70368;DHT22;57789;53.868;10.728;2023-09-12T12:27:41;22.10;99.90
70368;DHT22;57789;53.868;10.728;2023-09-12T12:30:12;22.20;99.90
70368;DHT22;57789;53.868;10.728;2023-09-12T12:32:45;22.20;99.90
70368;DHT22;57789;53.868;10.728;2023-09-12T12:35:21;22.20;99.90
70368;DHT22;57789;53.868;10.728;2023-09-12T12:37:51;22.30;99.90
70368;DHT22;57789;53.868;10.728;2023-09-12T12:40:18;22.40;99.90
70368;DHT22;57789;53.868;10.728;2023-09-12T12:42:44;22.40;99.90
70368;DHT22;57789;53.868;10.728;2023-09-12T12:45:32;22.40;99.90
70368;DHT22;57789;53.868;10.728;2023-09-12T12:47:59;22.40;99.90
70368;DHT22;57789;53.868;10.728;2023-09-12T12:50:34;22.30;99.90
70368;DHT22;57789;53.868;10.728;2023-09-12T12:53:01;22.30;99.90
70368;DHT22;57789;53.868;10.728;2023-09-12T12:55:27;22.10;99.90
70368;DHT22;57789;53.868;10.728;2023-09-12T12:57:53;22.00;99.90
70368;DHT22;57789;53.868;10.728;2023-09-12T13:00:18;21.80;99.90
70368;DHT22;57789;53.868;10.728;2023-09-12T13:02:47;21.60;99.90
70368;DHT22;57789;53.868;10.728;2023-09-12T13:05:29;21.40;99.90
70368;DHT22;57789;53.868;10.728;2023-09-12T13:07:56;21.30;99.90
70368;DHT22;57789;53.868;10.728;2023-09-12T13:10:22;21.20;99.90
70368;DHT22;57789;53.868;10.728;2023-09-12T13:12:49;21.10;99.90
70368;DHT22;57789;53.868;10.728;2023-09-12T13:15:16;21.10;99.90
70368;DHT22;57789;53.868;10.728;2023-09-12T13:17:43;21.10;99.90
70368;DHT22;57789;53.868;10.728;2023-09-12T13:20:09;21.20;99.90
70368;DHT22;57789;53.868;10.728;2023-09-12T13:22:35;21.20;99.90
70368;DHT22;57789;53.868;10.728;2023-09-12T13:25:04;21.20;99.90
70368;DHT22;57789;53.868;10.728;2023-09-12T13:27:30;21.30;99.90
70368;DHT22;57789;53.868;10.728;2023-09-12T13:29:55;21.30;99.90
70368;DHT22;57789;53.868;10.728;2023-09-12T13:32:22;21.30;99.90
70368;DHT22;57789;53.868;10.728;2023-09-12T13:34:47;21.30;99.90
70368;DHT22;57789;53.868;10.728;2023-09-12T13:37:15;21.40;99.90
70368;DHT22;57789;53.868;10.728;2023-09-12T13:39:44;21.50;99.90
70368;DHT22;57789;53.868;10.728;2023-09-12T13:42:15;21.50;99.90
70368;DHT22;57789;53.868;10.728;2023-09-12T13:44:44;21.60;99.90
70368;DHT22;57789;53.868;10.728;2023-09-12T13:47:10;21.70;99.90
70368;DHT22;57789;53.868;10.728;2023-09-12T13:49:36;21.70;99.90
70368;DHT22;57789;53.868;10.728;2023-09-12T13:52:02;21.70;99.90
70368;DHT22;57789;53.868;10.728;2023-09-12T13:54:28;21.70;99.90
70368;DHT22;57789;53.868;10.728;2023-09-12T13:56:53;21.80;99.90
70368;DHT22;57789;53.868;10.728;2023-09-12T13:59:19;21.90;99.90
70368;DHT22;57789;53.868;10.728;2023-09-12T14:01:46;21.80;99.90
70368;DHT22;57789;53.868;10.728;2023-09-12T14:04:13;21.90;99.90
70368;DHT22;57789;53.868;10.728;2023-09-12T14:06:41;22.10;99.90
70368;DHT22;57789;53.868;10.728;2023-09-12T14:09:07;22.10;99.90
70368;DHT22;57789;53.868;10.728;2023-09-12T14:11:33;22.30;99.90
70368;DHT22;57789;53.868;10.728;2023-09-12T14:13:59;22.60;99.90
70368;DHT22;57789;53.868;10.728;2023-09-12T14:16:24;22.90;99.90
70368;DHT22;57789;53.868;10.728;2023-09-12T14:18:50;23.00;99.90
70368;DHT22;57789;53.868;10.728;2023-09-12T14:21:15;23.10;99.90
70368;DHT22;57789;53.868;10.728;2023-09-12T14:23:41;23.30;99.90
70368;DHT22;57789;53.868;10.728;2023-09-12T14:26:08;23.60;99.90
70368;DHT22;57789;53.868;10.728;2023-09-12T14:28:34;24.30;99.90
70368;DHT22;57789;53.868;10.728;2023-09-12T14:31:00;24.60;99.90
70368;DHT22;57789;53.868;10.728;2023-09-12T14:33:29;24.50;99.90
70368;DHT22;57789;53.868;10.728;2023-09-12T14:35:54;24.40;99.90
70368;DHT22;57789;53.868;10.728;2023-09-12T14:38:20;24.40;99.90
70368;DHT22;57789;53.868;10.728;2023-09-12T14:40:46;24.60;99.90
70368;DHT22;57789;53.868;10.728;2023-09-12T14:43:12;24.40;99.90
70368;DHT22;57789;53.868;10.728;2023-09-12T14:45:38;24.20;99.90
70368;DHT22;57789;53.868;10.728;2023-09-12T14:48:05;24.20;99.90
70368;DHT22;57789;53.868;10.728;2023-09-12T14:50:30;24.10;99.90
70368;DHT22;57789;53.868;10.728;2023-09-12T14:52:56;24.10;99.90
70368;DHT22;57789;53.868;10.728;2023-09-12T14:55:22;23.90;99.90
70368;DHT22;57789;53.868;10.728;2023-09-12T14:57:48;23.70;99.90
70368;DHT22;57789;53.868;10.728;2023-09-12T15:00:14;23.50;99.90
70368;DHT22;57789;53.868;10.728;2023-09-12T15:02:42;23.50;99.90
70368;DHT22;57789;53.868;10.728;2023-09-12T15:05:08;23.70;99.90
70368;DHT22;57789;53.868;10.728;2023-09-12T15:07:34;24.00;99.90
70368;DHT22;57789;53.868;10.728;2023-09-12T15:10:02;24.20;99.90
70368;DHT22;57789;53.868;10.728;2023-09-12T15:12:27;24.30;99.90
70368;DHT22;57789;53.868;10.728;2023-09-12T15:14:53;24.40;99.90
70368;DHT22;57789;53.868;10.728;2023-09-12T15:17:19;24.30;99.90
70368;DHT22;57789;53.868;10.728;2023-09-12T15:19:48;24.20;99.90
70368;DHT22;57789;53.868;10.728;2023-09-12T15:22:13;24.10;99.90
70368;DHT22;57789;53.868;10.728;2023-09-12T15:24:42;24.20;99.90